createdAt,value
2023-04-22T00:00:43.169Z,75.06
2023-04-22T00:03:15.960Z,75.27
2023-04-22T00:05:49.449Z,75.82
2023-04-22T00:08:22.914Z,76.81
2023-04-22T00:10:55.480Z,76.58
2023-04-22T00:13:28.276Z,75.69
2023-04-22T00:16:01.879Z,73.99
2023-04-22T00:18:36.334Z,73.55
2023-04-22T00:21:10.579Z,74.01
2023-04-22T00:23:45.672Z,74.66
2023-04-22T00:26:19.533Z,74.77
2023-04-22T00:29:01.100Z,73.55
2023-04-22T00:31:34.032Z,73.75
2023-04-22T00:34:07.129Z,75.00
2023-04-22T00:36:39.884Z,75.67
2023-04-22T00:39:12.570Z,75.48
2023-04-22T00:41:45.582Z,76.18
2023-04-22T00:44:19.017Z,76.53
2023-04-22T00:46:52.900Z,77.28
2023-04-22T00:49:26.923Z,77.97
2023-04-22T00:51:59.466Z,78.18
2023-04-22T00:54:33.557Z,78.94
2023-04-22T00:57:07.176Z,77.95
2023-04-22T00:59:40.765Z,77.23
2023-04-22T01:02:13.742Z,76.54
2023-04-22T01:04:47.009Z,77.11
2023-04-22T01:07:19.560Z,77.39
2023-04-22T01:09:53.476Z,78.81
2023-04-22T01:12:23.996Z,78.75
2023-04-22T01:14:57.212Z,79.49
2023-04-22T01:17:29.754Z,79.35
2023-04-22T01:20:04.601Z,78.20
2023-04-22T01:22:42.529Z,79.06
2023-04-22T01:25:15.733Z,80.26
2023-04-22T01:27:48.460Z,81.31
2023-04-22T01:30:21.672Z,78.10
2023-04-22T01:32:56.625Z,77.83
2023-04-22T01:35:31.092Z,76.66
2023-04-22T01:38:03.751Z,77.11
2023-04-22T01:40:37.205Z,79.15
2023-04-22T01:43:08.058Z,79.40
2023-04-22T01:45:41.057Z,80.14
2023-04-22T01:48:13.578Z,79.35
2023-04-22T01:50:46.252Z,80.71
2023-04-22T01:53:19.502Z,82.35
2023-04-22T01:55:52.133Z,80.80
2023-04-22T01:58:24.771Z,79.90
2023-04-22T02:00:57.798Z,78.89
2023-04-22T02:03:30.555Z,79.06
2023-04-22T02:06:03.493Z,80.25
2023-04-22T02:08:37.032Z,81.33
2023-04-22T02:11:10.441Z,80.53
2023-04-22T02:13:43.582Z,80.22
2023-04-22T02:16:16.944Z,79.33
2023-04-22T02:18:49.446Z,80.06
2023-04-22T02:21:22.371Z,80.81
2023-04-22T02:23:54.971Z,81.46
2023-04-22T02:26:27.669Z,81.43
2023-04-22T02:29:00.485Z,78.67
2023-04-22T02:31:33.196Z,79.56
2023-04-22T02:34:06.977Z,81.88
2023-04-22T02:36:39.931Z,83.31
2023-04-22T02:39:12.699Z,81.19
2023-04-22T02:41:45.981Z,81.32
2023-04-22T02:44:18.468Z,81.99
2023-04-22T02:46:51.391Z,81.81
2023-04-22T02:49:23.900Z,81.50
2023-04-22T02:51:56.820Z,81.19
2023-04-22T02:54:29.649Z,82.18
2023-04-22T02:57:03.206Z,81.43
2023-04-22T02:59:36.400Z,81.29
2023-04-22T03:02:11.038Z,81.61
2023-04-22T03:05:06.548Z,82.65
2023-04-22T03:07:39.392Z,81.62
2023-04-22T03:10:16.042Z,82.67
2023-04-22T03:12:49.584Z,84.01
2023-04-22T03:15:22.277Z,84.24
2023-04-22T03:17:55.262Z,83.40
2023-04-22T03:20:28.448Z,83.56
2023-04-22T03:23:01.487Z,83.68
2023-04-22T03:25:34.039Z,83.72
2023-04-22T03:28:10.196Z,83.62
2023-04-22T03:30:43.275Z,83.80
2023-04-22T03:33:16.157Z,84.21
2023-04-22T03:35:56.179Z,84.10
2023-04-22T03:38:30.063Z,84.06
2023-04-22T03:41:02.950Z,84.70
2023-04-22T03:43:44.993Z,84.84
2023-04-22T03:46:17.951Z,85.33
2023-04-22T03:48:58.043Z,86.11
2023-04-22T03:51:34.860Z,86.68
2023-04-22T03:54:10.685Z,87.27
2023-04-22T03:56:46.862Z,87.12
2023-04-22T03:59:20.039Z,87.25
2023-04-22T04:01:55.369Z,89.91
2023-04-22T04:04:31.590Z,88.87
2023-04-22T04:07:06.071Z,86.52
2023-04-22T04:09:39.012Z,86.20
2023-04-22T04:12:12.343Z,87.28
2023-04-22T04:14:48.279Z,89.32
2023-04-22T04:17:26.191Z,89.51
2023-04-22T04:19:59.462Z,87.72
2023-04-22T04:22:32.125Z,88.09
2023-04-22T04:25:05.831Z,88.67
2023-04-22T04:27:42.706Z,88.75
2023-04-22T04:30:18.240Z,89.09
2023-04-22T04:32:58.170Z,87.25
2023-04-22T04:35:34.822Z,86.39
2023-04-22T04:38:07.806Z,86.94
2023-04-22T04:40:45.926Z,89.64
2023-04-22T04:43:29.861Z,93.77
2023-04-22T04:46:10.058Z,94.11
2023-04-22T04:48:44.258Z,95.08
2023-04-22T04:51:20.070Z,98.04
2023-04-22T04:53:59.973Z,98.71
2023-04-22T04:56:36.657Z,99.52
2023-04-22T04:59:09.866Z,97.69
2023-04-22T05:01:43.877Z,99.56
2023-04-22T05:04:17.813Z,100.00
2023-04-22T05:06:50.977Z,100.00
2023-04-22T05:09:23.730Z,100.00
2023-04-22T05:12:06.873Z,100.00
2023-04-22T05:14:41.162Z,100.00
2023-04-22T05:17:14.892Z,100.00
2023-04-22T05:19:47.670Z,100.00
2023-04-22T05:22:21.252Z,100.00
2023-04-22T05:24:54.064Z,100.00
2023-04-22T05:27:27.326Z,100.00
2023-04-22T05:30:00.653Z,100.00
2023-04-22T05:32:35.697Z,99.65
2023-04-22T05:35:09.218Z,97.55
2023-04-22T05:37:42.804Z,95.97
2023-04-22T05:40:16.330Z,91.03
2023-04-22T05:42:49.224Z,89.48
2023-04-22T05:45:22.162Z,89.90
2023-04-22T05:47:56.203Z,88.87
2023-04-22T05:50:30.365Z,86.57
2023-04-22T05:53:09.653Z,82.75
2023-04-22T05:55:42.734Z,82.71
2023-04-22T05:58:17.184Z,86.56
2023-04-22T06:00:56.773Z,90.19
2023-04-22T06:03:48.757Z,93.01
2023-04-22T06:06:22.270Z,89.23
2023-04-22T06:08:55.382Z,83.69
2023-04-22T06:11:30.907Z,79.37
2023-04-22T06:14:03.978Z,80.81
2023-04-22T06:16:41.132Z,77.87
2023-04-22T06:19:14.027Z,77.23
2023-04-22T06:21:47.110Z,78.10
2023-04-22T06:24:19.832Z,76.12
2023-04-22T06:26:52.586Z,70.93
2023-04-22T06:29:25.563Z,68.87
2023-04-22T06:32:01.710Z,70.25
2023-04-22T06:34:34.617Z,71.37
2023-04-22T06:37:07.516Z,66.64
2023-04-22T06:39:40.854Z,64.12
2023-04-22T06:42:48.470Z,68.58
2023-04-22T06:45:47.349Z,61.02
2023-04-22T06:48:27.802Z,59.05
2023-04-22T06:51:29.341Z,57.17
2023-04-22T06:54:02.558Z,54.88
2023-04-22T06:56:33.770Z,57.60
2023-04-22T06:59:08.088Z,56.71
2023-04-22T07:01:41.656Z,56.45
2023-04-22T07:04:14.464Z,54.87
2023-04-22T07:06:48.297Z,55.27
2023-04-22T07:09:21.129Z,52.52
2023-04-22T07:11:53.875Z,49.82
2023-04-22T07:14:28.772Z,48.78
2023-04-22T07:17:02.325Z,50.90
2023-04-22T07:19:34.789Z,50.48
2023-04-22T07:22:08.545Z,50.21
2023-04-22T07:24:41.625Z,45.61
2023-04-22T07:27:14.226Z,47.01
2023-04-22T07:29:47.185Z,47.47
2023-04-22T07:32:19.752Z,44.61
2023-04-22T07:34:52.728Z,45.97
2023-04-22T07:37:26.136Z,45.05
2023-04-22T07:39:58.962Z,46.39
2023-04-22T07:42:32.009Z,45.42
2023-04-22T07:45:04.519Z,48.61
2023-04-22T07:47:37.424Z,46.54
2023-04-22T07:50:12.133Z,41.25
2023-04-22T07:52:46.519Z,39.37
2023-04-22T07:55:19.487Z,42.53
2023-04-22T07:57:50.463Z,42.66
2023-04-22T08:00:23.464Z,43.71
2023-04-22T08:02:56.486Z,43.40
2023-04-22T08:05:29.119Z,41.66
2023-04-22T08:08:01.886Z,42.24
2023-04-22T08:10:34.608Z,40.61
2023-04-22T08:13:07.300Z,39.28
2023-04-22T08:15:40.455Z,38.85
2023-04-22T08:18:11.550Z,38.07
2023-04-22T08:20:47.020Z,38.38
2023-04-22T08:23:21.930Z,36.85
2023-04-22T08:25:55.254Z,38.40
2023-04-22T08:28:27.878Z,40.14
2023-04-22T08:31:00.566Z,36.54
2023-04-22T08:33:33.736Z,36.01
2023-04-22T08:36:06.694Z,37.39
2023-04-22T08:38:39.380Z,36.18
2023-04-22T08:41:12.395Z,38.29
2023-04-22T08:43:45.826Z,35.27
2023-04-22T08:46:21.796Z,35.08
2023-04-22T08:48:55.023Z,36.90
2023-04-22T08:51:28.693Z,37.40
2023-04-22T08:54:01.716Z,34.08
2023-04-22T08:56:37.351Z,35.26
2023-04-22T08:59:11.873Z,36.51
2023-04-22T09:01:45.836Z,33.17
2023-04-22T09:04:20.962Z,34.23
2023-04-22T09:06:53.820Z,34.20
2023-04-22T09:09:29.811Z,33.67
2023-04-22T09:12:03.241Z,33.25
2023-04-22T09:14:36.791Z,34.78
2023-04-22T09:17:11.192Z,33.09
2023-04-22T09:19:44.439Z,32.58
2023-04-22T09:22:20.142Z,32.65
2023-04-22T09:25:06.403Z,30.80
2023-04-22T09:27:41.088Z,31.13
2023-04-22T09:30:16.183Z,33.41
2023-04-22T09:33:00.241Z,31.80
2023-04-22T09:35:38.345Z,31.55
2023-04-22T09:38:12.440Z,34.78
2023-04-22T09:40:48.178Z,35.47
2023-04-22T09:43:22.241Z,35.32
2023-04-22T09:45:58.227Z,33.44
2023-04-22T09:48:32.193Z,34.66
2023-04-22T09:51:18.578Z,35.53
2023-04-22T09:54:01.458Z,33.67
2023-04-22T09:56:50.931Z,34.93
2023-04-22T09:59:28.490Z,34.74
2023-04-22T10:02:04.661Z,35.83
2023-04-22T10:04:37.550Z,37.37
2023-04-22T10:07:10.189Z,36.69
2023-04-22T10:09:43.629Z,35.69
2023-04-22T10:12:25.946Z,37.72
2023-04-22T10:15:02.185Z,37.37
2023-04-22T10:17:37.849Z,37.30
2023-04-22T10:20:19.041Z,35.63
2023-04-22T10:22:54.129Z,37.36
2023-04-22T10:25:28.119Z,37.52
2023-04-22T10:28:06.220Z,36.47
2023-04-22T10:30:41.046Z,37.51
2023-04-22T10:33:40.616Z,37.12
2023-04-22T10:36:18.565Z,38.98
2023-04-22T10:39:22.450Z,36.30
2023-04-22T10:41:57.361Z,36.25
2023-04-22T10:44:48.286Z,38.08
2023-04-22T10:47:38.567Z,37.07
2023-04-22T10:50:16.093Z,34.80
2023-04-22T10:52:50.836Z,35.79
2023-04-22T10:55:24.118Z,34.16
2023-04-22T10:57:57.798Z,34.79
2023-04-22T11:00:52.421Z,35.39
2023-04-22T11:03:31.729Z,35.12
2023-04-22T11:06:22.907Z,34.11
2023-04-22T11:09:13.314Z,35.09
2023-04-22T11:11:48.425Z,36.79
2023-04-22T11:14:23.339Z,36.90
2023-04-22T11:16:56.880Z,37.64
2023-04-22T11:19:32.090Z,34.72
2023-04-22T11:22:04.878Z,34.24
2023-04-22T11:24:37.722Z,32.93
2023-04-22T11:29:30.361Z,34.05
2023-04-22T11:32:45.436Z,32.23
2023-04-22T11:35:20.279Z,32.52
2023-04-22T11:37:56.251Z,31.33
2023-04-22T11:40:33.186Z,33.05
2023-04-22T11:43:09.683Z,33.10
2023-04-22T11:45:43.081Z,34.72
2023-04-22T11:48:16.962Z,32.29
2023-04-22T11:50:49.551Z,33.18
2023-04-22T11:53:24.482Z,35.88
2023-04-22T11:55:57.279Z,36.15
2023-04-22T11:58:30.719Z,35.50
2023-04-22T12:01:03.712Z,35.89
2023-04-22T12:03:36.191Z,37.22
2023-04-22T12:06:09.411Z,33.65
2023-04-22T12:08:44.816Z,34.49
2023-04-22T12:11:17.857Z,34.79
2023-04-22T12:13:51.657Z,35.49
2023-04-22T12:16:24.918Z,33.92
2023-04-22T12:18:56.772Z,34.02
2023-04-22T12:21:32.580Z,34.03
2023-04-22T12:24:12.089Z,34.56
2023-04-22T12:26:45.920Z,34.93
2023-04-22T12:29:18.843Z,35.84
2023-04-22T12:31:51.970Z,34.48
2023-04-22T12:34:22.940Z,34.71
2023-04-22T12:36:56.738Z,33.53
2023-04-22T12:39:29.576Z,34.68
2023-04-22T12:42:02.618Z,35.22
2023-04-22T12:44:35.350Z,34.21
2023-04-22T12:47:08.051Z,32.64
2023-04-22T12:49:41.237Z,34.00
2023-04-22T12:52:14.211Z,33.11
2023-04-22T12:54:47.125Z,34.89
2023-04-22T12:57:19.953Z,35.35
2023-04-22T12:59:52.523Z,35.56
2023-04-22T13:02:25.813Z,35.11
2023-04-22T13:04:58.769Z,33.55
2023-04-22T13:07:31.388Z,34.54
2023-04-22T13:10:04.092Z,34.10
2023-04-22T13:12:38.527Z,37.34
2023-04-22T13:15:13.157Z,36.59
2023-04-22T13:17:47.590Z,35.07
2023-04-22T13:20:21.392Z,35.08
2023-04-22T13:22:53.937Z,33.54
2023-04-22T13:25:26.833Z,35.29
2023-04-22T13:27:59.465Z,34.38
2023-04-22T13:30:32.816Z,35.91
2023-04-22T13:33:05.357Z,36.45
2023-04-22T13:35:39.971Z,35.72
2023-04-22T13:38:12.715Z,33.04
2023-04-22T13:40:45.588Z,33.34
2023-04-22T13:43:18.682Z,32.28
2023-04-22T13:45:49.610Z,34.92
2023-04-22T13:48:22.317Z,33.66
2023-04-22T13:50:55.221Z,34.69
2023-04-22T13:53:28.248Z,36.34
2023-04-22T13:55:59.243Z,37.11
2023-04-22T13:58:32.710Z,36.84
2023-04-22T14:01:08.472Z,34.36
2023-04-22T14:03:41.295Z,34.76
2023-04-22T14:06:14.401Z,37.18
2023-04-22T14:08:45.398Z,35.48
2023-04-22T14:11:18.330Z,34.02
2023-04-22T14:13:49.411Z,33.08
2023-04-22T14:16:22.529Z,32.55
2023-04-22T14:18:56.212Z,31.90
2023-04-22T14:21:30.182Z,34.15
2023-04-22T14:24:03.872Z,32.03
2023-04-22T14:26:36.584Z,33.00
2023-04-22T14:29:08.971Z,33.55
2023-04-22T14:31:42.518Z,32.68
2023-04-22T14:34:16.723Z,32.54
2023-04-22T14:36:50.052Z,34.29
2023-04-22T14:39:22.981Z,35.33
2023-04-22T14:41:57.729Z,33.37
2023-04-22T14:44:30.219Z,32.14
2023-04-22T14:47:01.551Z,31.64
2023-04-22T14:49:35.339Z,31.95
2023-04-22T14:52:09.331Z,32.63
2023-04-22T14:54:41.868Z,33.11
2023-04-22T14:57:14.900Z,32.58
2023-04-22T14:59:47.355Z,31.28
2023-04-22T15:02:20.666Z,31.80
2023-04-22T15:04:53.639Z,33.09
2023-04-22T15:07:31.022Z,34.89
2023-04-22T15:10:04.764Z,33.34
2023-04-22T15:12:36.234Z,32.05
2023-04-22T15:15:10.752Z,33.09
2023-04-22T15:17:44.142Z,31.74
2023-04-22T15:20:17.487Z,33.09
2023-04-22T15:22:52.602Z,32.79
2023-04-22T15:25:27.707Z,32.54
2023-04-22T15:28:02.118Z,31.41
2023-04-22T15:30:34.948Z,33.08
2023-04-22T15:51:34.213Z,33.55
2023-04-22T15:54:09.009Z,33.58
2023-04-22T15:56:41.928Z,32.85
2023-04-22T15:59:16.215Z,32.78
2023-04-22T16:01:49.783Z,31.69
2023-04-22T16:04:25.621Z,32.35
2023-04-22T16:07:01.202Z,32.49
2023-04-22T16:09:33.800Z,33.09
2023-04-22T16:12:08.309Z,32.33
2023-04-22T16:14:42.220Z,32.43
2023-04-22T16:17:16.019Z,34.35
2023-04-22T16:19:48.850Z,31.69
2023-04-22T16:22:21.547Z,32.69
2023-04-22T16:24:54.222Z,34.96
2023-04-22T16:27:27.885Z,34.56
2023-04-22T16:30:00.781Z,35.08
2023-04-22T16:32:33.861Z,35.59
2023-04-22T16:35:07.518Z,32.72
2023-04-22T16:37:42.180Z,33.15
2023-04-22T16:40:15.387Z,34.53
2023-04-22T16:42:50.488Z,34.33
2023-04-22T16:45:24.640Z,34.26
2023-04-22T16:47:57.558Z,36.80
2023-04-22T16:50:28.479Z,37.72
2023-04-22T16:53:01.201Z,38.44
2023-04-22T16:55:35.086Z,40.44
2023-04-22T16:58:09.951Z,40.96
2023-04-22T17:00:43.138Z,41.28
2023-04-22T17:03:17.766Z,43.53
2023-04-22T17:05:50.737Z,45.83
2023-04-22T17:08:23.577Z,46.75
2023-04-22T17:10:56.624Z,48.52
2023-04-22T17:13:32.419Z,47.96
2023-04-22T17:16:05.973Z,47.66
2023-04-22T17:18:36.701Z,48.04
2023-04-22T17:27:44.373Z,49.01
2023-04-22T17:30:18.380Z,49.40
2023-04-22T17:32:52.612Z,50.46
2023-04-22T17:35:25.614Z,50.21
2023-04-22T17:37:58.505Z,51.76
2023-04-22T17:40:31.461Z,51.84
2023-04-22T17:43:05.532Z,52.88
2023-04-22T17:45:38.353Z,53.50
2023-04-22T17:48:12.477Z,53.41
2023-04-22T17:50:45.004Z,53.83
2023-04-22T17:53:19.554Z,53.62
2023-04-22T17:55:53.824Z,53.45
2023-04-22T17:58:27.456Z,54.07
2023-04-22T18:01:00.243Z,54.09
2023-04-22T18:03:33.206Z,53.56
2023-04-22T18:06:06.052Z,53.57
2023-04-22T18:08:39.334Z,54.43
2023-04-22T18:11:10.123Z,54.90
2023-04-22T18:13:42.732Z,55.56
2023-04-22T18:16:15.653Z,56.29
2023-04-22T18:18:48.684Z,55.66
2023-04-22T18:21:21.820Z,55.90
2023-04-22T18:23:54.482Z,56.59
2023-04-22T18:26:27.264Z,55.70
2023-04-22T18:29:00.501Z,55.24
2023-04-22T18:31:34.522Z,55.33
2023-04-22T18:34:14.219Z,56.53
2023-04-22T18:36:48.012Z,57.56
2023-04-22T18:39:21.828Z,57.14
2023-04-22T18:41:55.141Z,58.01
2023-04-22T18:44:28.514Z,58.09
2023-04-22T18:47:01.639Z,57.60
2023-04-22T18:49:35.211Z,59.26
2023-04-22T18:52:07.849Z,58.61
2023-04-22T18:55:05.876Z,58.03
2023-04-22T18:57:38.552Z,57.81
2023-04-22T19:00:14.939Z,58.37
2023-04-22T19:02:48.137Z,58.52
2023-04-22T19:05:19.173Z,59.29
2023-04-22T19:07:51.799Z,60.05
2023-04-22T19:10:27.386Z,59.59
2023-04-22T19:13:01.817Z,59.67
2023-04-22T19:15:34.912Z,60.15
2023-04-22T19:18:08.024Z,59.45
2023-04-22T19:20:40.582Z,60.04
2023-04-22T19:23:13.587Z,61.33
2023-04-22T19:25:46.248Z,61.24
2023-04-22T19:28:19.164Z,62.51
2023-04-22T19:30:54.334Z,63.63
2023-04-22T19:33:27.577Z,64.33
2023-04-22T19:36:02.071Z,64.75
2023-04-22T19:38:36.102Z,67.27
2023-04-22T19:41:30.430Z,66.95
2023-04-22T19:44:18.976Z,67.14
2023-04-22T19:46:52.603Z,66.60
2023-04-22T19:49:28.205Z,66.17
2023-04-22T19:52:03.493Z,66.06
2023-04-22T19:54:39.368Z,66.38
2023-04-22T19:57:14.795Z,67.02
2023-04-22T19:59:48.823Z,67.70
2023-04-22T20:02:23.401Z,68.47
2023-04-22T20:04:58.548Z,69.83
2023-04-22T20:07:34.349Z,71.70
2023-04-22T20:10:09.673Z,71.08
2023-04-22T20:12:47.214Z,72.49
2023-04-22T20:15:20.998Z,71.50
2023-04-22T20:17:55.626Z,73.60
2023-04-22T20:20:31.409Z,71.87
2023-04-22T20:23:10.769Z,68.62
2023-04-22T20:25:46.215Z,70.24
2023-04-22T20:28:19.377Z,65.31
2023-04-22T20:30:52.799Z,66.95
2023-04-22T20:33:25.608Z,69.42
2023-04-22T20:35:59.281Z,68.15
2023-04-22T20:38:37.299Z,69.54
2023-04-22T20:41:19.880Z,67.31
2023-04-22T20:43:56.182Z,65.56
2023-04-22T20:46:28.766Z,66.70
2023-04-22T20:49:02.190Z,65.26
2023-04-22T20:51:35.668Z,66.93
2023-04-22T20:54:17.805Z,65.00
2023-04-22T20:56:54.153Z,64.27
2023-04-22T20:59:27.185Z,62.61
2023-04-22T21:02:00.985Z,63.60
2023-04-22T21:04:36.578Z,62.78
2023-04-22T21:07:12.748Z,62.59
2023-04-22T21:09:46.066Z,63.47
2023-04-22T21:12:19.647Z,61.19
2023-04-22T21:14:53.215Z,62.22
2023-04-22T21:17:31.865Z,60.03
2023-04-22T21:20:09.583Z,60.03
2023-04-22T21:22:45.743Z,58.58
2023-04-22T21:25:22.868Z,60.91
2023-04-22T21:27:56.614Z,60.67
2023-04-22T21:30:30.372Z,60.52
2023-04-22T21:33:03.011Z,60.32
2023-04-22T21:35:36.076Z,60.22
2023-04-22T21:38:09.338Z,58.13
2023-04-22T21:40:41.848Z,60.21
2023-04-22T21:43:14.652Z,60.30
2023-04-22T21:45:47.400Z,60.10
2023-04-22T21:48:20.234Z,61.78
2023-04-22T21:50:53.299Z,61.28
2023-04-22T21:53:25.977Z,61.29
2023-04-22T21:55:58.857Z,62.26
2023-04-22T21:58:31.519Z,61.26
2023-04-22T22:01:04.023Z,60.83
2023-04-22T22:03:37.292Z,61.97
2023-04-22T22:06:10.464Z,63.28
2023-04-22T22:08:45.428Z,63.71
2023-04-22T22:11:29.822Z,62.24
2023-04-22T22:14:03.948Z,64.30
2023-04-22T22:16:36.363Z,63.40
2023-04-22T22:19:11.486Z,63.61
2023-04-22T22:21:43.918Z,66.71
2023-04-22T22:24:18.252Z,67.15
2023-04-22T22:26:51.112Z,69.64
2023-04-22T22:29:23.816Z,69.53
2023-04-22T22:31:56.232Z,69.41
2023-04-22T22:34:29.677Z,69.86
2023-04-22T22:37:00.570Z,68.66
2023-04-22T22:39:36.186Z,71.22
2023-04-22T22:42:08.900Z,71.26
2023-04-22T22:44:41.968Z,71.49
2023-04-22T22:47:13.345Z,71.09
2023-04-22T22:49:46.218Z,70.29
2023-04-22T22:52:18.777Z,70.57
2023-04-22T22:54:51.854Z,69.92
2023-04-22T22:57:25.099Z,67.44
2023-04-22T22:59:57.768Z,69.66
2023-04-22T23:02:30.617Z,71.94
2023-04-22T23:05:05.579Z,71.36
2023-04-22T23:07:38.181Z,72.70
2023-04-22T23:10:13.791Z,72.80
2023-04-22T23:12:46.915Z,72.87
2023-04-22T23:15:19.682Z,72.75
2023-04-22T23:17:54.733Z,73.64
2023-04-22T23:20:28.822Z,74.25
2023-04-22T23:23:02.912Z,72.23
2023-04-22T23:25:37.014Z,72.05
2023-04-22T23:28:10.743Z,72.51
2023-04-22T23:30:44.364Z,72.77
2023-04-22T23:33:18.007Z,73.18
2023-04-22T23:35:50.399Z,69.80
2023-04-22T23:38:22.913Z,71.39
2023-04-22T23:40:55.526Z,72.56
2023-04-22T23:43:27.943Z,70.54
2023-04-22T23:46:03.267Z,72.12
2023-04-22T23:48:36.499Z,73.62
2023-04-22T23:51:09.542Z,73.26
2023-04-22T23:53:42.274Z,73.05
2023-04-22T23:56:20.632Z,74.64
2023-04-22T23:58:54.480Z,75.58
